createdAt,value
2022-12-11T00:00:05.826Z,98944.20
2022-12-11T00:05:10.978Z,98944.05
2022-12-11T00:10:16.031Z,98934.79
2022-12-11T00:15:20.874Z,98927.59
2022-12-11T00:20:25.199Z,98921.41
2022-12-11T00:25:29.568Z,98922.96
2022-12-11T00:30:34.212Z,98926.25
2022-12-11T00:35:46.491Z,98937.31
2022-12-11T00:40:51.236Z,98947.56
2022-12-11T00:45:55.793Z,98946.44
2022-12-11T00:50:59.932Z,98952.53
2022-12-11T00:56:10.674Z,98951.02
2022-12-11T01:01:21.929Z,98946.48
2022-12-11T01:06:28.950Z,98946.27
2022-12-11T01:11:33.100Z,98934.37
2022-12-11T01:16:36.792Z,98931.51
2022-12-11T01:21:42.827Z,98925.91
2022-12-11T01:26:47.433Z,98925.23
2022-12-11T01:31:52.375Z,98924.19
2022-12-11T01:36:56.443Z,98915.53
2022-12-11T01:42:02.255Z,98911.69
2022-12-11T01:47:06.541Z,98909.98
2022-12-11T01:52:19.878Z,98907.73
2022-12-11T01:57:24.224Z,98905.13
2022-12-11T02:02:31.043Z,98900.83
2022-12-11T02:07:42.994Z,98898.33
2022-12-11T02:13:10.856Z,98891.77
2022-12-11T02:18:25.889Z,98884.86
2022-12-11T02:23:49.074Z,98877.59
2022-12-11T02:29:09.803Z,98869.67
2022-12-11T02:34:26.169Z,98864.67
2022-12-11T02:39:33.198Z,98860.76
2022-12-11T02:44:41.101Z,98851.17
2022-12-11T02:49:47.626Z,98851.98
2022-12-11T02:54:55.810Z,98849.58
2022-12-11T02:59:59.874Z,98846.11
2022-12-11T03:05:05.988Z,98851.44
2022-12-11T03:10:15.779Z,98854.38
2022-12-11T03:15:24.648Z,98859.34
2022-12-11T03:20:48.914Z,98860.12
2022-12-11T03:26:14.789Z,98858.21
2022-12-11T03:31:40.994Z,98866.72
2022-12-11T03:36:48.766Z,98864.39
2022-12-11T03:41:56.416Z,98864.31
2022-12-11T03:47:03.108Z,98867.92
2022-12-11T03:52:10.173Z,98866.95
2022-12-11T03:57:19.131Z,98860.79
2022-12-11T04:02:24.699Z,98863.53
2022-12-11T04:07:30.067Z,98864.08
2022-12-11T04:12:36.204Z,98865.98
2022-12-11T04:17:59.446Z,98868.95
2022-12-11T04:23:40.933Z,98871.05
2022-12-11T04:28:46.057Z,98860.11
2022-12-11T04:33:50.992Z,98851.77
2022-12-11T04:38:56.155Z,98843.29
2022-12-11T04:44:00.543Z,98837.07
2022-12-11T04:49:05.501Z,98838.52
2022-12-11T04:54:10.878Z,98831.60
2022-12-11T04:59:16.210Z,98827.80
2022-12-11T05:04:21.204Z,98821.89
2022-12-11T05:09:27.066Z,98819.66
2022-12-11T05:14:33.145Z,98815.85
2022-12-11T05:19:37.925Z,98811.54
2022-12-11T05:24:42.561Z,98808.48
2022-12-11T05:29:47.595Z,98806.65
2022-12-11T05:34:52.595Z,98801.92
2022-12-11T05:39:58.323Z,98804.42
2022-12-11T05:45:04.715Z,98799.27
2022-12-11T05:50:09.859Z,98794.86
2022-12-11T05:55:15.223Z,98793.13
2022-12-11T06:00:20.285Z,98789.52
2022-12-11T06:05:25.386Z,98789.63
2022-12-11T06:10:29.428Z,98793.99
2022-12-11T06:15:34.331Z,98794.46
2022-12-11T06:20:39.790Z,98796.17
2022-12-11T06:25:43.127Z,98795.64
2022-12-11T06:30:47.211Z,98791.63
2022-12-11T06:35:52.110Z,98792.39
2022-12-11T06:40:59.016Z,98790.71
2022-12-11T06:46:06.595Z,98790.38
2022-12-11T06:51:13.777Z,98786.78
2022-12-11T06:56:20.171Z,98796.19
2022-12-11T07:01:27.666Z,98801.88
2022-12-11T07:06:31.302Z,98800.29
2022-12-11T07:11:34.583Z,98804.70
2022-12-11T07:16:38.922Z,98805.92
2022-12-11T07:21:43.885Z,98811.48
2022-12-11T07:26:48.351Z,98804.77
2022-12-11T07:31:54.739Z,98800.13
2022-12-11T07:36:58.480Z,98797.05
2022-12-11T07:42:02.507Z,98790.01
2022-12-11T07:47:05.948Z,98788.67
2022-12-11T07:52:11.765Z,98789.23
2022-12-11T07:57:16.305Z,98783.14
2022-12-11T08:02:21.143Z,98779.36
2022-12-11T08:07:25.324Z,98778.14
2022-12-11T08:12:29.024Z,98776.22
2022-12-11T08:17:38.248Z,98775.63
2022-12-11T08:22:43.405Z,98769.64
2022-12-11T08:27:47.602Z,98768.86
2022-12-11T08:32:52.787Z,98764.79
2022-12-11T08:37:56.441Z,98770.36
2022-12-11T08:43:00.189Z,98776.41
2022-12-11T08:48:04.918Z,98780.17
2022-12-11T08:53:09.928Z,98776.31
2022-12-11T08:58:15.397Z,98775.42
2022-12-11T09:03:20.809Z,98775.36
2022-12-11T09:08:24.312Z,98768.71
2022-12-11T09:13:28.396Z,98753.91
2022-12-11T09:18:32.741Z,98757.30
2022-12-11T09:23:37.247Z,98752.48
2022-12-11T09:28:46.309Z,98747.70
2022-12-11T09:33:52.639Z,98744.81
2022-12-11T09:38:56.627Z,98736.74
2022-12-11T09:44:21.712Z,98726.88
2022-12-11T09:49:27.935Z,98716.80
2022-12-11T09:54:32.733Z,98709.71
2022-12-11T10:00:04.739Z,98702.71
2022-12-11T10:05:30.287Z,98697.19
2022-12-11T10:10:58.050Z,98694.51
2022-12-11T10:16:35.965Z,98689.39
2022-12-11T10:21:42.101Z,98685.63
2022-12-11T10:26:47.696Z,98685.05
2022-12-11T10:32:00.185Z,98687.81
2022-12-11T10:37:04.972Z,98678.60
2022-12-11T10:42:20.929Z,98677.44
2022-12-11T10:47:25.270Z,98668.71
2022-12-11T10:52:39.166Z,98656.77
2022-12-11T10:57:45.648Z,98644.62
2022-12-11T11:02:50.486Z,98637.34
2022-12-11T11:08:17.787Z,98630.20
2022-12-11T11:13:28.345Z,98629.79
2022-12-11T11:18:34.059Z,98623.17
2022-12-11T11:23:45.470Z,98618.67
2022-12-11T11:28:54.335Z,98615.61
2022-12-11T11:34:00.952Z,98610.24
2022-12-11T11:39:38.111Z,98609.84
2022-12-11T11:44:48.298Z,98608.34
2022-12-11T11:50:03.605Z,98596.10
2022-12-11T11:55:21.750Z,98593.03
2022-12-11T12:00:33.395Z,98581.55
2022-12-11T12:06:03.080Z,98574.73
2022-12-11T12:11:34.369Z,98579.32
2022-12-11T12:16:53.902Z,98574.94
2022-12-11T12:22:10.031Z,98559.90
2022-12-11T12:27:55.617Z,98559.55
2022-12-11T12:33:13.800Z,98565.67
2022-12-11T12:38:23.605Z,98567.36
2022-12-11T12:43:46.952Z,98561.41
2022-12-11T12:48:55.646Z,98551.89
2022-12-11T12:54:09.098Z,98557.61
2022-12-11T12:59:24.936Z,98560.81
2022-12-11T13:04:58.578Z,98561.77
2022-12-11T13:10:25.973Z,98557.71
2022-12-11T13:15:45.454Z,98561.79
2022-12-11T13:20:52.685Z,98564.35
2022-12-11T13:26:02.712Z,98567.22
2022-12-11T13:31:15.932Z,98570.50
2022-12-11T13:36:40.287Z,98566.12
2022-12-11T13:41:52.230Z,98560.70
2022-12-11T13:46:59.703Z,98560.02
2022-12-11T13:52:05.728Z,98562.29
2022-12-11T13:57:09.777Z,98561.59
2022-12-11T14:02:24.013Z,98573.75
2022-12-11T14:07:33.808Z,98576.30
2022-12-11T14:12:37.920Z,98570.91
2022-12-11T14:17:50.046Z,98576.34
2022-12-11T14:23:34.430Z,98572.60
2022-12-11T14:28:42.970Z,98575.66
2022-12-11T14:33:54.137Z,98576.02
2022-12-11T14:39:05.354Z,98574.63
2022-12-11T14:44:16.387Z,98567.43
2022-12-11T14:49:35.124Z,98564.30
2022-12-11T14:54:43.621Z,98559.37
2022-12-11T14:59:50.305Z,98562.91
2022-12-11T15:05:18.709Z,98564.41
2022-12-11T15:10:35.882Z,98567.30
2022-12-11T15:15:47.212Z,98564.19
2022-12-11T15:20:56.724Z,98565.04
2022-12-11T15:26:02.546Z,98557.83
2022-12-11T15:31:22.596Z,98562.62
2022-12-11T15:36:36.900Z,98558.89
2022-12-11T15:41:42.657Z,98554.86
2022-12-11T15:46:46.810Z,98553.52
2022-12-11T15:51:51.104Z,98553.73
2022-12-11T15:56:55.881Z,98554.35
2022-12-11T16:02:00.499Z,98552.12
2022-12-11T16:07:16.005Z,98559.70
2022-12-11T16:12:20.425Z,98560.58
2022-12-11T16:17:25.407Z,98556.67
2022-12-11T16:22:30.251Z,98555.53
2022-12-11T16:27:34.089Z,98557.64
2022-12-11T16:32:40.967Z,98553.73
2022-12-11T16:37:48.822Z,98549.08
2022-12-11T16:42:55.495Z,98542.36
2022-12-11T16:48:05.452Z,98537.58
2022-12-11T16:53:09.539Z,98540.56
2022-12-11T16:58:20.470Z,98543.41
2022-12-11T17:03:24.598Z,98541.52
2022-12-11T17:08:28.440Z,98537.48
2022-12-11T17:13:35.968Z,98535.80
2022-12-11T17:18:41.409Z,98537.18
2022-12-11T17:23:45.586Z,98538.91
2022-12-11T17:28:49.128Z,98542.09
2022-12-11T17:33:54.796Z,98547.08
2022-12-11T17:38:58.904Z,98544.81
2022-12-11T17:44:02.642Z,98546.72
2022-12-11T17:49:06.354Z,98549.61
2022-12-11T17:54:11.889Z,98547.85
2022-12-11T17:59:16.530Z,98548.17
2022-12-11T18:04:21.054Z,98547.84
2022-12-11T18:09:25.066Z,98551.63
2022-12-11T18:14:29.994Z,98555.55
2022-12-11T18:19:34.466Z,98551.24
2022-12-11T18:24:38.925Z,98554.23
2022-12-11T18:29:43.635Z,98549.21
2022-12-11T18:34:49.852Z,98554.35
2022-12-11T18:39:54.958Z,98548.23
2022-12-11T18:44:59.446Z,98543.21
2022-12-11T18:50:07.719Z,98541.94
2022-12-11T18:55:12.490Z,98543.33
2022-12-11T19:00:17.613Z,98541.38
2022-12-11T19:05:21.649Z,98540.75
2022-12-11T19:10:26.065Z,98543.80
2022-12-11T19:15:30.819Z,98543.84
2022-12-11T19:20:49.486Z,98536.58
2022-12-11T19:25:55.417Z,98539.05
2022-12-11T19:31:00.050Z,98532.06
2022-12-11T19:36:06.763Z,98519.13
2022-12-11T19:41:27.224Z,98520.98
2022-12-11T19:46:31.913Z,98518.66
2022-12-11T19:51:41.923Z,98525.55
2022-12-11T19:56:46.926Z,98521.38
2022-12-11T20:01:51.573Z,98517.95
2022-12-11T20:06:55.339Z,98513.13
2022-12-11T20:12:00.359Z,98511.52
2022-12-11T20:17:12.445Z,98502.42
2022-12-11T20:22:18.133Z,98502.17
2022-12-11T20:27:21.946Z,98497.15
2022-12-11T20:32:26.344Z,98492.88
2022-12-11T20:37:30.746Z,98492.08
2022-12-11T20:42:35.563Z,98488.35
2022-12-11T20:47:39.130Z,98491.86
2022-12-11T20:52:43.595Z,98497.66
2022-12-11T20:57:47.990Z,98494.83
2022-12-11T21:02:52.548Z,98487.73
2022-12-11T21:07:58.125Z,98486.13
2022-12-11T21:13:03.524Z,98486.34
2022-12-11T21:18:08.450Z,98482.33
2022-12-11T21:23:12.299Z,98479.08
2022-12-11T21:28:17.009Z,98472.60
2022-12-11T21:33:21.554Z,98471.65
2022-12-11T21:38:26.909Z,98470.09
2022-12-11T21:43:31.232Z,98476.40
2022-12-11T21:48:35.364Z,98483.86
2022-12-11T21:53:39.557Z,98484.77
2022-12-11T21:58:44.407Z,98474.20
2022-12-11T22:03:50.302Z,98476.67
2022-12-11T22:08:54.948Z,98483.20
2022-12-11T22:14:01.160Z,98482.44
2022-12-11T22:19:06.502Z,98483.95
2022-12-11T22:24:11.145Z,98476.89
2022-12-11T22:29:16.460Z,98476.00
2022-12-11T22:34:22.585Z,98472.44
2022-12-11T22:39:28.582Z,98469.92
2022-12-11T22:44:33.606Z,98476.22
2022-12-11T22:49:38.315Z,98474.74
2022-12-11T22:54:44.530Z,98478.85
2022-12-11T22:59:50.213Z,98476.06
2022-12-11T23:04:55.470Z,98475.54
2022-12-11T23:10:00.100Z,98475.84
2022-12-11T23:15:05.503Z,98473.69
2022-12-11T23:20:09.707Z,98476.09
2022-12-11T23:25:15.165Z,98472.64
2022-12-11T23:30:20.216Z,98471.40
2022-12-11T23:35:25.614Z,98472.54
2022-12-11T23:40:30.542Z,98471.55
2022-12-11T23:45:35.120Z,98472.04
2022-12-11T23:50:41.342Z,98474.32
2022-12-11T23:55:45.690Z,98472.55
